地図

経路データ

SID SEASON NUMBER BASIN SUBBASIN NAME ISO_TIME NATURE LAT LON WMO_WIND WMO_PRES WMO_AGENCY TRACK_TYPE DIST2LAND LANDFALL IFLAG USA_AGENCY USA_ATCF_ID USA_LAT USA_LON USA_RECORD USA_STATUS USA_WIND USA_PRES USA_SSHS USA_R34_NE USA_R34_SE USA_R34_SW USA_R34_NW USA_R50_NE USA_R50_SE USA_R50_SW USA_R50_NW USA_R64_NE USA_R64_SE USA_R64_SW USA_R64_NW USA_POCI USA_ROCI USA_RMW USA_EYE TOKYO_LAT TOKYO_LON TOKYO_GRADE TOKYO_WIND TOKYO_PRES TOKYO_R50_DIR TOKYO_R50_LONG TOKYO_R50_SHORT TOKYO_R30_DIR TOKYO_R30_LONG TOKYO_R30_SHORT TOKYO_LAND CMA_LAT CMA_LON CMA_CAT CMA_WIND CMA_PRES HKO_LAT HKO_LON HKO_CAT HKO_WIND HKO_PRES NEWDELHI_LAT NEWDELHI_LON NEWDELHI_GRADE NEWDELHI_WIND NEWDELHI_PRES NEWDELHI_CI NEWDELHI_DP NEWDELHI_POCI REUNION_LAT REUNION_LON REUNION_TYPE REUNION_WIND REUNION_PRES REUNION_TNUM REUNION_CI REUNION_RMW REUNION_R34_NE REUNION_R34_SE REUNION_R34_SW REUNION_R34_NW REUNION_R50_NE REUNION_R50_SE REUNION_R50_SW REUNION_R50_NW REUNION_R64_NE REUNION_R64_SE REUNION_R64_SW REUNION_R64_NW BOM_LAT BOM_LON BOM_TYPE BOM_WIND BOM_PRES BOM_TNUM BOM_CI BOM_RMW BOM_R34_NE BOM_R34_SE BOM_R34_SW BOM_R34_NW BOM_R50_NE BOM_R50_SE BOM_R50_SW BOM_R50_NW BOM_R64_NE BOM_R64_SE BOM_R64_SW BOM_R64_NW BOM_ROCI BOM_POCI BOM_EYE BOM_POS_METHOD BOM_PRES_METHOD NADI_LAT NADI_LON NADI_CAT NADI_WIND NADI_PRES WELLINGTON_LAT WELLINGTON_LON WELLINGTON_WIND WELLINGTON_PRES DS824_LAT DS824_LON DS824_STAGE DS824_WIND DS824_PRES TD9636_LAT TD9636_LON TD9636_STAGE TD9636_WIND TD9636_PRES TD9635_LAT TD9635_LON TD9635_WIND TD9635_PRES TD9635_ROCI NEUMANN_LAT NEUMANN_LON NEUMANN_CLASS NEUMANN_WIND NEUMANN_PRES MLC_LAT MLC_LON MLC_CLASS MLC_WIND MLC_PRES USA_GUST BOM_GUST BOM_GUST_PER REUNION_GUST REUNION_GUST_PER USA_SEAHGT USA_SEARAD_NE USA_SEARAD_SE USA_SEARAD_SW USA_SEARAD_NW STORM_SPEED STORM_DIR
1923053S11151 1923 15 SP EA NOT_NAMED 1923-02-21 23:00:00 NR -11.0000 150.900 bom main 49 46 ______O_______ -1 -11.0000 150.900 8 247
1923053S11151 1923 15 SP EA NOT_NAMED 1923-02-22 00:00:00 NR -11.0542 150.771 main 57 49 ______P_______ -1 -11.0542 150.771 8 247
1923053S11151 1923 15 SP EA NOT_NAMED 1923-02-22 03:00:00 NR -11.2167 150.385 main 56 56 ______P_______ -1 -11.2167 150.385 8 247
1923053S11151 1923 15 SP EA NOT_NAMED 1923-02-22 06:00:00 NR -11.3789 150.001 main 81 81 ______P_______ -1 -11.3789 150.001 8 247
1923053S11151 1923 15 SP EA NOT_NAMED 1923-02-22 09:00:00 NR -11.5409 149.623 main 105 105 ______P_______ -1 -11.5409 149.623 8 246
1923053S11151 1923 15 SP EA NOT_NAMED 1923-02-22 12:00:00 NR -11.7030 149.252 main 139 139 ______P_______ -1 -11.7030 149.252 8 246
1923053S11151 1923 15 SP EA NOT_NAMED 1923-02-22 15:00:00 NR -11.8652 148.892 main 179 179 ______P_______ -1 -11.8652 148.892 8 245
1923053S11151 1923 15 SP EA NOT_NAMED 1923-02-22 18:00:00 NR -12.0278 148.544 main 198 198 ______P_______ -1 -12.0278 148.544 7 244
1923053S11151 1923 15 SP EA NOT_NAMED 1923-02-22 21:00:00 NR -12.1909 148.212 main 225 224 ______P_______ -1 -12.1909 148.212 7 243
1923053S11151 1923 15 SP EA NOT_NAMED 1923-02-22 23:00:00 NR -12.3000 148.000 bom main 235 235 ______O_______ -1 -12.3000 148.000 7 242
1923053S11151 1923 15 SP EA NOT_NAMED 1923-02-23 00:00:00 NR -12.3547 147.897 main 246 246 ______P_______ -1 -12.3547 147.897 7 240
1923053S11151 1923 15 SP EA NOT_NAMED 1923-02-23 03:00:00 NR -12.5216 147.608 main 261 261 ______P_______ -1 -12.5216 147.608 6 237
1923053S11151 1923 15 SP EA NOT_NAMED 1923-02-23 06:00:00 NR -12.6964 147.357 main 287 287 ______P_______ -1 -12.6964 147.357 6 230
1923053S11151 1923 15 SP EA NOT_NAMED 1923-02-23 09:00:00 NR -12.8847 147.161 main 311 279 ______P_______ -1 -12.8847 147.161 5 219
1923053S11151 1923 15 SP EA NOT_NAMED 1923-02-23 12:00:00 NR -13.0919 147.033 main 279 264 ______P_______ -1 -13.0919 147.033 5 201
1923053S11151 1923 15 SP EA NOT_NAMED 1923-02-23 15:00:00 NR -13.3234 146.990 main 264 241 ______P_______ -1 -13.3234 146.990 5 0
1923053S11151 1923 15 SP EA NOT_NAMED 1923-02-23 18:00:00 NR -13.5846 147.046 main 241 235 ______P_______ -1 -13.5846 147.046 6 159
1923053S11151 1923 15 SP EA NOT_NAMED 1923-02-23 21:00:00 NR -13.8807 147.216 main 238 238 ______P_______ -1 -13.8807 147.216 7 146
1923053S11151 1923 15 SP EA NOT_NAMED 1923-02-23 23:00:00 NR -14.1000 147.400 bom main 247 247 ______O_______ -1 -14.1000 147.400 9 141
1923053S11151 1923 15 SP EA NOT_NAMED 1923-02-24 00:00:00 NR -14.2302 147.509 main 253 249 ______P_______ -1 -14.2302 147.509 11 137
1923053S11151 1923 15 SP EA NOT_NAMED 1923-02-24 03:00:00 NR -14.6418 147.918 main 279 276 ______P_______ -1 -14.6418 147.918 12 133
1923053S11151 1923 15 SP EA NOT_NAMED 1923-02-24 06:00:00 NR -15.0478 148.426 main 323 323 ______P_______ -1 -15.0478 148.426 13 126
1923053S11151 1923 15 SP EA NOT_NAMED 1923-02-24 09:00:00 NR -15.4000 149.000 bom main 376 376 ______O_______ -1 -15.4000 149.000 12 118
1923053S11151 1923 15 SP EA NOT_NAMED 1923-02-24 12:00:00 NR -15.6002 149.513 main 414 414 ______P_______ -1 -15.6002 149.513 11 108
1923053S11151 1923 15 SP EA NOT_NAMED 1923-02-24 15:00:00 NR -15.7284 150.070 main 466 466 ______P_______ -1 -15.7284 150.070 12 102
1923053S11151 1923 15 SP EA NOT_NAMED 1923-02-24 18:00:00 NR -15.8349 150.701 main 521 521 ______P_______ -1 -15.8349 150.701 13 100
1923053S11151 1923 15 SP EA NOT_NAMED 1923-02-24 21:00:00 NR -15.9698 151.437 main 553 553 ______P_______ -1 -15.9698 151.437 15 102
1923053S11151 1923 15 SP EA NOT_NAMED 1923-02-24 23:00:00 NR -16.1000 152.000 bom main 578 578 ______O_______ -1 -16.1000 152.000 17 103
1923053S11151 1923 15 SP EA NOT_NAMED 1923-02-25 00:00:00 NR -16.1677 152.313 main 589 589 ______P_______ -1 -16.1677 152.313 20 105
1923053S11151 1923 15 SP EA NOT_NAMED 1923-02-25 03:00:00 NR -16.4314 153.320 main 644 644 ______P_______ -1 -16.4314 153.320 20 108
1923053S11151 1923 15 SP EA NOT_NAMED 1923-02-25 05:00:00 NR -16.7000 154.000 bom main 680 680 ______O_______ -1 -16.7000 154.000 21 114
1923053S11151 1923 15 SP EA NOT_NAMED 1923-02-25 06:00:00 NR -16.8663 154.337 main 693 693 ______P_______ -1 -16.8663 154.337 22 122
1923053S11151 1923 15 SP EA NOT_NAMED 1923-02-25 09:00:00 NR -17.4975 155.317 main 728 726 ______P_______ -1 -17.4975 155.317 23 127
1923053S11151 1923 15 SP EA NOT_NAMED 1923-02-25 11:00:00 NR -18.0000 155.900 bom main 732 732 ______O_______ -1 -18.0000 155.900 22 133
1923053S11151 1923 15 SP EA NOT_NAMED 1923-02-25 12:00:00 NR -18.2496 156.167 main 740 731 ______P_______ -1 -18.2496 156.167 21 140
1923053S11151 1923 15 SP EA NOT_NAMED 1923-02-25 15:00:00 NR -19.0739 156.855 main 737 684 ______P_______ -1 -19.0739 156.855 21 146
1923053S11151 1923 15 SP EA NOT_NAMED 1923-02-25 18:00:00 NR -20.0000 157.400 bom main 682 626 ______O_______ -1 -20.0000 157.400 22 154
1923053S11151 1923 15 SP EA NOT_NAMED 1923-02-25 21:00:00 NR -21.0138 157.851 main 634 605 ______P_______ -1 -21.0138 157.851 22 159
1923053S11151 1923 15 SP EA NOT_NAMED 1923-02-25 23:00:00 NR -21.7000 158.100 bom main 600 589 ______O_______ -1 -21.7000 158.100 21 162
1923053S11151 1923 15 SP EA NOT_NAMED 1923-02-26 00:00:00 NR -22.0248 158.213 main 589 564 ______P_______ -1 -22.0248 158.213 20 164
1923053S11151 1923 15 SP EA NOT_NAMED 1923-02-26 03:00:00 NR -22.9606 158.494 main 563 552 ______P_______ -1 -22.9606 158.494 19 165
1923053S11151 1923 15 SP EA NOT_NAMED 1923-02-26 06:00:00 NR -23.8442 158.733 main 552 550 ______P_______ -1 -23.8442 158.733 18 165
1923053S11151 1923 15 SP EA NOT_NAMED 1923-02-26 09:00:00 NR -24.6831 158.986 main 565 564 ______P_______ -1 -24.6831 158.986 17 162
1923053S11151 1923 15 SP EA NOT_NAMED 1923-02-26 12:00:00 NR -25.4840 159.312 main 595 595 ______P_______ -1 -25.4840 159.312 17 157
1923053S11151 1923 15 SP EA NOT_NAMED 1923-02-26 14:00:00 NR -26.0000 159.600 bom main 631 631 ______O_______ -1 -26.0000 159.600 18 152
1923053S11151 1923 15 SP EA NOT_NAMED 1923-02-26 15:00:00 NR -26.2533 159.771 main 647 647 ______P_______ -1 -26.2533 159.771 18 145
1923053S11151 1923 15 SP MM NOT_NAMED 1923-02-26 18:00:00 NR -26.9970 160.382 main 682 682 ______P_______ -1 -26.9970 160.382 19 141
1923053S11151 1923 15 SP MM NOT_NAMED 1923-02-26 21:00:00 NR -27.7226 161.095 main 737 736 ______P_______ -1 -27.7226 161.095 19 138
1923053S11151 1923 15 SP MM NOT_NAMED 1923-02-26 23:00:00 NR -28.2000 161.600 984 bom main 782 ______O_______ -1 -28.2000 161.600 984 4 20 137

デジタル台風データ・検索

IBTrACS Databaseについて

本データベースは、米国NOAAが公開する1842年以降の世界の熱帯低気圧のベストトラックデータアーカイブInternational Best Track Archive for Climate Stewardship (IBTrACS)を、ウェブで閲覧しやすい形式に変換したものです。

最終更新日:2021-12-03